sensor_id;sensor_type;location;lat;lon;timestamp;P1;durP1;ratioP1;P2;durP2;ratioP2
5965;SDS011;3009;43.224;27.976;2023-10-31T00:02:20;48.33;;;29.27;;
5965;SDS011;3009;43.224;27.976;2023-10-31T00:04:50;41.23;;;26.77;;
5965;SDS011;3009;43.224;27.976;2023-10-31T00:07:19;38.77;;;26.23;;
5965;SDS011;3009;43.224;27.976;2023-10-31T00:09:47;45.60;;;27.13;;
5965;SDS011;3009;43.224;27.976;2023-10-31T00:12:16;49.33;;;27.53;;
5965;SDS011;3009;43.224;27.976;2023-10-31T00:14:46;45.67;;;27.00;;
5965;SDS011;3009;43.224;27.976;2023-10-31T00:17:14;39.97;;;26.60;;
5965;SDS011;3009;43.224;27.976;2023-10-31T00:19:43;55.83;;;26.93;;
5965;SDS011;3009;43.224;27.976;2023-10-31T00:22:12;40.43;;;25.70;;
5965;SDS011;3009;43.224;27.976;2023-10-31T00:24:40;50.30;;;26.37;;
5965;SDS011;3009;43.224;27.976;2023-10-31T00:27:09;43.70;;;26.70;;
5965;SDS011;3009;43.224;27.976;2023-10-31T00:29:37;40.70;;;25.17;;
5965;SDS011;3009;43.224;27.976;2023-10-31T00:32:07;52.57;;;26.93;;
5965;SDS011;3009;43.224;27.976;2023-10-31T00:34:35;49.17;;;27.00;;
5965;SDS011;3009;43.224;27.976;2023-10-31T00:37:04;53.83;;;26.97;;
5965;SDS011;3009;43.224;27.976;2023-10-31T00:39:33;39.20;;;25.97;;
5965;SDS011;3009;43.224;27.976;2023-10-31T00:42:01;36.90;;;24.60;;
5965;SDS011;3009;43.224;27.976;2023-10-31T00:44:30;41.63;;;23.57;;
5965;SDS011;3009;43.224;27.976;2023-10-31T00:46:58;43.10;;;22.23;;
5965;SDS011;3009;43.224;27.976;2023-10-31T00:49:28;38.00;;;21.23;;
5965;SDS011;3009;43.224;27.976;2023-10-31T00:51:56;46.80;;;24.50;;
5965;SDS011;3009;43.224;27.976;2023-10-31T00:54:24;35.80;;;23.27;;
5965;SDS011;3009;43.224;27.976;2023-10-31T00:56:53;45.83;;;22.30;;
5965;SDS011;3009;43.224;27.976;2023-10-31T00:59:21;37.27;;;22.10;;
5965;SDS011;3009;43.224;27.976;2023-10-31T01:01:50;32.70;;;21.50;;
5965;SDS011;3009;43.224;27.976;2023-10-31T01:04:19;121.30;;;20.83;;
5965;SDS011;3009;43.224;27.976;2023-10-31T01:06:49;56.43;;;20.30;;
5965;SDS011;3009;43.224;27.976;2023-10-31T01:09:17;44.43;;;17.87;;
5965;SDS011;3009;43.224;27.976;2023-10-31T01:11:47;27.47;;;16.47;;
5965;SDS011;3009;43.224;27.976;2023-10-31T01:14:15;30.90;;;17.03;;
5965;SDS011;3009;43.224;27.976;2023-10-31T01:16:45;29.23;;;17.63;;
5965;SDS011;3009;43.224;27.976;2023-10-31T01:19:14;39.40;;;16.33;;
5965;SDS011;3009;43.224;27.976;2023-10-31T01:21:42;74.57;;;18.97;;
5965;SDS011;3009;43.224;27.976;2023-10-31T01:24:12;41.70;;;19.97;;
5965;SDS011;3009;43.224;27.976;2023-10-31T01:26:40;41.20;;;19.40;;
5965;SDS011;3009;43.224;27.976;2023-10-31T01:29:09;65.13;;;19.17;;
5965;SDS011;3009;43.224;27.976;2023-10-31T01:31:37;35.30;;;18.30;;
5965;SDS011;3009;43.224;27.976;2023-10-31T01:34:25;30.90;;;19.00;;
5965;SDS011;3009;43.224;27.976;2023-10-31T01:36:53;37.00;;;19.00;;
5965;SDS011;3009;43.224;27.976;2023-10-31T01:39:23;46.57;;;18.93;;
5965;SDS011;3009;43.224;27.976;2023-10-31T01:41:51;35.20;;;18.80;;
5965;SDS011;3009;43.224;27.976;2023-10-31T01:44:21;39.77;;;19.47;;
5965;SDS011;3009;43.224;27.976;2023-10-31T01:46:49;45.27;;;18.77;;
5965;SDS011;3009;43.224;27.976;2023-10-31T01:49:18;50.20;;;18.00;;
5965;SDS011;3009;43.224;27.976;2023-10-31T01:51:46;29.73;;;18.90;;
5965;SDS011;3009;43.224;27.976;2023-10-31T01:54:15;47.67;;;18.60;;
5965;SDS011;3009;43.224;27.976;2023-10-31T01:56:46;44.83;;;18.83;;
5965;SDS011;3009;43.224;27.976;2023-10-31T01:59:17;54.63;;;20.53;;
5965;SDS011;3009;43.224;27.976;2023-10-31T02:01:45;35.90;;;19.33;;
5965;SDS011;3009;43.224;27.976;2023-10-31T02:04:14;44.83;;;19.90;;
5965;SDS011;3009;43.224;27.976;2023-10-31T02:06:43;37.90;;;21.30;;
5965;SDS011;3009;43.224;27.976;2023-10-31T02:09:11;35.80;;;21.13;;
5965;SDS011;3009;43.224;27.976;2023-10-31T02:11:39;29.47;;;19.83;;
5965;SDS011;3009;43.224;27.976;2023-10-31T02:14:09;28.80;;;20.37;;
5965;SDS011;3009;43.224;27.976;2023-10-31T02:16:37;28.43;;;19.13;;
5965;SDS011;3009;43.224;27.976;2023-10-31T02:19:06;26.03;;;17.90;;
5965;SDS011;3009;43.224;27.976;2023-10-31T02:21:39;29.00;;;18.97;;
5965;SDS011;3009;43.224;27.976;2023-10-31T02:24:07;34.90;;;20.73;;
5965;SDS011;3009;43.224;27.976;2023-10-31T02:26:36;38.13;;;20.43;;
5965;SDS011;3009;43.224;27.976;2023-10-31T02:29:04;32.87;;;20.63;;
5965;SDS011;3009;43.224;27.976;2023-10-31T02:31:33;36.63;;;20.10;;
5965;SDS011;3009;43.224;27.976;2023-10-31T02:34:02;30.77;;;20.40;;
5965;SDS011;3009;43.224;27.976;2023-10-31T02:36:30;24.77;;;19.00;;
5965;SDS011;3009;43.224;27.976;2023-10-31T02:39:01;34.60;;;23.17;;
5965;SDS011;3009;43.224;27.976;2023-10-31T02:41:30;28.73;;;19.27;;
5965;SDS011;3009;43.224;27.976;2023-10-31T02:43:58;27.70;;;19.27;;
5965;SDS011;3009;43.224;27.976;2023-10-31T02:46:27;26.43;;;19.17;;
5965;SDS011;3009;43.224;27.976;2023-10-31T02:48:55;25.03;;;18.57;;
5965;SDS011;3009;43.224;27.976;2023-10-31T02:51:24;27.43;;;18.87;;
5965;SDS011;3009;43.224;27.976;2023-10-31T02:53:52;27.50;;;17.50;;
5965;SDS011;3009;43.224;27.976;2023-10-31T02:56:22;25.03;;;18.63;;
5965;SDS011;3009;43.224;27.976;2023-10-31T02:58:52;29.00;;;18.93;;
5965;SDS011;3009;43.224;27.976;2023-10-31T03:01:21;35.73;;;19.83;;
5965;SDS011;3009;43.224;27.976;2023-10-31T03:03:49;21.43;;;18.37;;
5965;SDS011;3009;43.224;27.976;2023-10-31T03:06:17;24.40;;;20.00;;
5965;SDS011;3009;43.224;27.976;2023-10-31T03:08:46;25.47;;;19.70;;
5965;SDS011;3009;43.224;27.976;2023-10-31T03:11:22;25.73;;;18.73;;
5965;SDS011;3009;43.224;27.976;2023-10-31T03:13:51;27.73;;;19.20;;
5965;SDS011;3009;43.224;27.976;2023-10-31T03:16:21;24.60;;;20.07;;
5965;SDS011;3009;43.224;27.976;2023-10-31T03:18:49;31.83;;;19.90;;
5965;SDS011;3009;43.224;27.976;2023-10-31T03:21:18;30.43;;;19.40;;
5965;SDS011;3009;43.224;27.976;2023-10-31T03:23:47;30.23;;;20.07;;
5965;SDS011;3009;43.224;27.976;2023-10-31T03:26:16;32.07;;;20.23;;
5965;SDS011;3009;43.224;27.976;2023-10-31T03:28:46;28.80;;;19.17;;
5965;SDS011;3009;43.224;27.976;2023-10-31T03:31:15;26.53;;;19.47;;
5965;SDS011;3009;43.224;27.976;2023-10-31T03:33:44;24.70;;;18.10;;
5965;SDS011;3009;43.224;27.976;2023-10-31T03:36:13;20.20;;;17.37;;
5965;SDS011;3009;43.224;27.976;2023-10-31T03:38:41;22.93;;;18.20;;
5965;SDS011;3009;43.224;27.976;2023-10-31T03:41:10;19.43;;;16.57;;
5965;SDS011;3009;43.224;27.976;2023-10-31T03:43:39;24.70;;;19.60;;
5965;SDS011;3009;43.224;27.976;2023-10-31T03:46:09;28.07;;;18.70;;
5965;SDS011;3009;43.224;27.976;2023-10-31T03:48:39;24.13;;;18.43;;
5965;SDS011;3009;43.224;27.976;2023-10-31T03:51:07;24.83;;;18.50;;
5965;SDS011;3009;43.224;27.976;2023-10-31T03:53:36;21.70;;;18.47;;
5965;SDS011;3009;43.224;27.976;2023-10-31T03:56:04;28.83;;;17.93;;
5965;SDS011;3009;43.224;27.976;2023-10-31T03:58:33;21.67;;;17.93;;
5965;SDS011;3009;43.224;27.976;2023-10-31T04:01:01;31.93;;;19.10;;
5965;SDS011;3009;43.224;27.976;2023-10-31T04:03:31;25.90;;;17.23;;
5965;SDS011;3009;43.224;27.976;2023-10-31T04:06:00;22.63;;;16.83;;
5965;SDS011;3009;43.224;27.976;2023-10-31T04:08:28;21.67;;;15.53;;
5965;SDS011;3009;43.224;27.976;2023-10-31T04:10:57;36.80;;;18.67;;
5965;SDS011;3009;43.224;27.976;2023-10-31T04:13:25;19.43;;;16.03;;
5965;SDS011;3009;43.224;27.976;2023-10-31T04:15:53;21.30;;;17.00;;
5965;SDS011;3009;43.224;27.976;2023-10-31T04:18:22;24.30;;;17.20;;
5965;SDS011;3009;43.224;27.976;2023-10-31T04:20:52;22.20;;;18.37;;
5965;SDS011;3009;43.224;27.976;2023-10-31T04:23:20;22.83;;;16.57;;
5965;SDS011;3009;43.224;27.976;2023-10-31T04:25:49;20.33;;;16.07;;
5965;SDS011;3009;43.224;27.976;2023-10-31T04:28:19;25.20;;;17.00;;
5965;SDS011;3009;43.224;27.976;2023-10-31T04:30:47;19.13;;;16.20;;
5965;SDS011;3009;43.224;27.976;2023-10-31T04:33:16;20.87;;;16.63;;
5965;SDS011;3009;43.224;27.976;2023-10-31T04:35:43;22.77;;;16.70;;
5965;SDS011;3009;43.224;27.976;2023-10-31T04:38:13;21.23;;;15.20;;
5965;SDS011;3009;43.224;27.976;2023-10-31T04:40:41;19.03;;;14.90;;
5965;SDS011;3009;43.224;27.976;2023-10-31T04:43:10;21.70;;;15.47;;
5965;SDS011;3009;43.224;27.976;2023-10-31T04:45:38;21.83;;;15.47;;
5965;SDS011;3009;43.224;27.976;2023-10-31T04:48:07;20.53;;;15.70;;
5965;SDS011;3009;43.224;27.976;2023-10-31T04:50:35;20.33;;;15.37;;
5965;SDS011;3009;43.224;27.976;2023-10-31T04:53:04;22.43;;;15.67;;
5965;SDS011;3009;43.224;27.976;2023-10-31T04:55:34;17.20;;;15.40;;
5965;SDS011;3009;43.224;27.976;2023-10-31T04:58:03;27.57;;;16.23;;
5965;SDS011;3009;43.224;27.976;2023-10-31T05:00:31;20.77;;;14.50;;
5965;SDS011;3009;43.224;27.976;2023-10-31T05:03:00;18.70;;;15.30;;
5965;SDS011;3009;43.224;27.976;2023-10-31T05:05:29;25.40;;;16.23;;
5965;SDS011;3009;43.224;27.976;2023-10-31T05:07:58;19.63;;;14.90;;
5965;SDS011;3009;43.224;27.976;2023-10-31T05:10:26;18.67;;;15.33;;
5965;SDS011;3009;43.224;27.976;2023-10-31T05:12:56;21.70;;;15.00;;
5965;SDS011;3009;43.224;27.976;2023-10-31T05:15:24;19.20;;;13.90;;
5965;SDS011;3009;43.224;27.976;2023-10-31T05:17:55;22.70;;;15.93;;
5965;SDS011;3009;43.224;27.976;2023-10-31T05:20:23;17.37;;;14.67;;
5965;SDS011;3009;43.224;27.976;2023-10-31T05:22:51;18.87;;;13.03;;
5965;SDS011;3009;43.224;27.976;2023-10-31T05:25:20;16.47;;;13.97;;
5965;SDS011;3009;43.224;27.976;2023-10-31T05:27:48;17.73;;;14.43;;
5965;SDS011;3009;43.224;27.976;2023-10-31T05:30:18;19.10;;;14.07;;
5965;SDS011;3009;43.224;27.976;2023-10-31T05:32:47;16.03;;;14.30;;
5965;SDS011;3009;43.224;27.976;2023-10-31T05:35:15;16.00;;;13.33;;
5965;SDS011;3009;43.224;27.976;2023-10-31T05:37:45;26.00;;;13.80;;
5965;SDS011;3009;43.224;27.976;2023-10-31T05:40:13;16.13;;;14.53;;
5965;SDS011;3009;43.224;27.976;2023-10-31T05:42:43;16.67;;;13.33;;
5965;SDS011;3009;43.224;27.976;2023-10-31T05:45:11;23.17;;;13.10;;
5965;SDS011;3009;43.224;27.976;2023-10-31T05:47:41;17.17;;;13.17;;
5965;SDS011;3009;43.224;27.976;2023-10-31T05:50:09;15.30;;;12.73;;
5965;SDS011;3009;43.224;27.976;2023-10-31T05:52:38;16.73;;;11.67;;
5965;SDS011;3009;43.224;27.976;2023-10-31T05:55:06;18.53;;;12.17;;
5965;SDS011;3009;43.224;27.976;2023-10-31T05:57:35;14.90;;;12.43;;
5965;SDS011;3009;43.224;27.976;2023-10-31T06:00:04;17.83;;;12.43;;
5965;SDS011;3009;43.224;27.976;2023-10-31T06:02:34;15.97;;;11.03;;
5965;SDS011;3009;43.224;27.976;2023-10-31T06:05:05;17.97;;;11.33;;
5965;SDS011;3009;43.224;27.976;2023-10-31T06:07:33;13.77;;;11.50;;
5965;SDS011;3009;43.224;27.976;2023-10-31T06:10:02;16.50;;;12.40;;
5965;SDS011;3009;43.224;27.976;2023-10-31T06:12:33;18.30;;;12.00;;
5965;SDS011;3009;43.224;27.976;2023-10-31T06:15:01;21.17;;;12.30;;
5965;SDS011;3009;43.224;27.976;2023-10-31T06:17:30;15.27;;;11.33;;
5965;SDS011;3009;43.224;27.976;2023-10-31T06:20:01;15.70;;;11.30;;
5965;SDS011;3009;43.224;27.976;2023-10-31T06:22:31;13.80;;;11.77;;
5965;SDS011;3009;43.224;27.976;2023-10-31T06:24:59;15.70;;;11.20;;
5965;SDS011;3009;43.224;27.976;2023-10-31T06:27:28;15.30;;;11.17;;
5965;SDS011;3009;43.224;27.976;2023-10-31T06:29:57;18.10;;;11.27;;
5965;SDS011;3009;43.224;27.976;2023-10-31T06:32:45;12.70;;;11.40;;
5965;SDS011;3009;43.224;27.976;2023-10-31T06:35:13;16.27;;;12.17;;
5965;SDS011;3009;43.224;27.976;2023-10-31T06:37:43;16.90;;;12.00;;
5965;SDS011;3009;43.224;27.976;2023-10-31T06:40:12;22.10;;;11.50;;
5965;SDS011;3009;43.224;27.976;2023-10-31T06:42:40;16.47;;;11.17;;
5965;SDS011;3009;43.224;27.976;2023-10-31T06:45:09;31.43;;;10.73;;
5965;SDS011;3009;43.224;27.976;2023-10-31T06:47:37;11.73;;;10.00;;
5965;SDS011;3009;43.224;27.976;2023-10-31T06:50:07;12.30;;;9.97;;
5965;SDS011;3009;43.224;27.976;2023-10-31T06:52:36;13.93;;;10.00;;
5965;SDS011;3009;43.224;27.976;2023-10-31T06:55:06;30.03;;;10.77;;
5965;SDS011;3009;43.224;27.976;2023-10-31T06:57:35;16.17;;;10.37;;
5965;SDS011;3009;43.224;27.976;2023-10-31T07:00:04;13.33;;;9.60;;
5965;SDS011;3009;43.224;27.976;2023-10-31T07:02:36;11.43;;;9.13;;
5965;SDS011;3009;43.224;27.976;2023-10-31T07:05:05;11.13;;;9.33;;
5965;SDS011;3009;43.224;27.976;2023-10-31T07:07:34;9.90;;;8.77;;
5965;SDS011;3009;43.224;27.976;2023-10-31T07:10:02;9.93;;;8.90;;
5965;SDS011;3009;43.224;27.976;2023-10-31T07:12:32;14.03;;;9.00;;
5965;SDS011;3009;43.224;27.976;2023-10-31T07:15:01;10.67;;;9.00;;
5965;SDS011;3009;43.224;27.976;2023-10-31T07:17:29;13.20;;;8.67;;
5965;SDS011;3009;43.224;27.976;2023-10-31T07:19:58;12.37;;;8.40;;
5965;SDS011;3009;43.224;27.976;2023-10-31T07:22:27;12.40;;;9.50;;
5965;SDS011;3009;43.224;27.976;2023-10-31T07:24:55;10.53;;;8.93;;
5965;SDS011;3009;43.224;27.976;2023-10-31T07:27:24;15.37;;;9.17;;
5965;SDS011;3009;43.224;27.976;2023-10-31T07:29:54;13.43;;;9.10;;
5965;SDS011;3009;43.224;27.976;2023-10-31T07:32:22;10.30;;;9.13;;
5965;SDS011;3009;43.224;27.976;2023-10-31T07:34:51;11.70;;;8.63;;
5965;SDS011;3009;43.224;27.976;2023-10-31T07:37:19;11.43;;;9.73;;
5965;SDS011;3009;43.224;27.976;2023-10-31T07:39:47;29.37;;;10.90;;
5965;SDS011;3009;43.224;27.976;2023-10-31T07:42:17;8.67;;;7.80;;
5965;SDS011;3009;43.224;27.976;2023-10-31T07:44:46;12.80;;;8.67;;
5965;SDS011;3009;43.224;27.976;2023-10-31T07:47:15;11.67;;;7.63;;
5965;SDS011;3009;43.224;27.976;2023-10-31T07:49:44;12.00;;;8.23;;
5965;SDS011;3009;43.224;27.976;2023-10-31T07:52:12;15.33;;;8.53;;
5965;SDS011;3009;43.224;27.976;2023-10-31T07:54:41;14.77;;;9.40;;
5965;SDS011;3009;43.224;27.976;2023-10-31T07:57:09;9.20;;;8.30;;
5965;SDS011;3009;43.224;27.976;2023-10-31T07:59:38;31.73;;;9.57;;
5965;SDS011;3009;43.224;27.976;2023-10-31T08:02:06;14.37;;;8.13;;
5965;SDS011;3009;43.224;27.976;2023-10-31T08:04:36;9.53;;;7.90;;
5965;SDS011;3009;43.224;27.976;2023-10-31T08:07:05;12.17;;;9.20;;
5965;SDS011;3009;43.224;27.976;2023-10-31T08:09:33;15.17;;;9.10;;
5965;SDS011;3009;43.224;27.976;2023-10-31T08:12:01;9.63;;;8.27;;
5965;SDS011;3009;43.224;27.976;2023-10-31T08:14:30;8.93;;;8.03;;
5965;SDS011;3009;43.224;27.976;2023-10-31T08:17:01;10.83;;;8.57;;
5965;SDS011;3009;43.224;27.976;2023-10-31T08:19:30;10.50;;;8.57;;
5965;SDS011;3009;43.224;27.976;2023-10-31T08:21:59;11.77;;;8.47;;
5965;SDS011;3009;43.224;27.976;2023-10-31T08:24:28;12.57;;;8.30;;
5965;SDS011;3009;43.224;27.976;2023-10-31T08:26:57;11.10;;;8.27;;
5965;SDS011;3009;43.224;27.976;2023-10-31T08:29:26;14.67;;;8.10;;
5965;SDS011;3009;43.224;27.976;2023-10-31T08:31:54;9.43;;;8.20;;
5965;SDS011;3009;43.224;27.976;2023-10-31T08:34:22;9.17;;;7.87;;
5965;SDS011;3009;43.224;27.976;2023-10-31T08:36:51;8.87;;;7.97;;
5965;SDS011;3009;43.224;27.976;2023-10-31T08:39:21;9.27;;;8.33;;
5965;SDS011;3009;43.224;27.976;2023-10-31T08:41:50;8.70;;;8.00;;
5965;SDS011;3009;43.224;27.976;2023-10-31T08:44:19;11.40;;;7.90;;
5965;SDS011;3009;43.224;27.976;2023-10-31T08:46:48;11.27;;;7.63;;
5965;SDS011;3009;43.224;27.976;2023-10-31T08:49:16;9.10;;;8.10;;
5965;SDS011;3009;43.224;27.976;2023-10-31T08:51:45;11.00;;;8.37;;
5965;SDS011;3009;43.224;27.976;2023-10-31T08:54:13;8.60;;;7.70;;
5965;SDS011;3009;43.224;27.976;2023-10-31T08:56:43;10.77;;;7.17;;
5965;SDS011;3009;43.224;27.976;2023-10-31T08:59:11;11.23;;;8.80;;
5965;SDS011;3009;43.224;27.976;2023-10-31T09:01:40;13.07;;;7.90;;
5965;SDS011;3009;43.224;27.976;2023-10-31T09:04:08;9.63;;;7.33;;
5965;SDS011;3009;43.224;27.976;2023-10-31T09:06:37;8.73;;;7.83;;
5965;SDS011;3009;43.224;27.976;2023-10-31T09:09:06;8.53;;;7.73;;
5965;SDS011;3009;43.224;27.976;2023-10-31T09:11:35;9.33;;;8.27;;
5965;SDS011;3009;43.224;27.976;2023-10-31T09:14:04;13.87;;;8.37;;
5965;SDS011;3009;43.224;27.976;2023-10-31T09:16:33;9.03;;;7.80;;
5965;SDS011;3009;43.224;27.976;2023-10-31T09:19:01;10.57;;;8.43;;
5965;SDS011;3009;43.224;27.976;2023-10-31T09:21:30;9.43;;;8.43;;
5965;SDS011;3009;43.224;27.976;2023-10-31T09:23:58;16.90;;;9.33;;
5965;SDS011;3009;43.224;27.976;2023-10-31T09:26:26;13.23;;;8.30;;
5965;SDS011;3009;43.224;27.976;2023-10-31T09:28:55;22.83;;;8.20;;
5965;SDS011;3009;43.224;27.976;2023-10-31T09:31:25;10.60;;;7.50;;
5965;SDS011;3009;43.224;27.976;2023-10-31T09:33:54;11.53;;;8.03;;
5965;SDS011;3009;43.224;27.976;2023-10-31T09:36:22;13.40;;;7.77;;
5965;SDS011;3009;43.224;27.976;2023-10-31T09:38:50;9.20;;;7.90;;
5965;SDS011;3009;43.224;27.976;2023-10-31T09:41:19;11.60;;;7.60;;
5965;SDS011;3009;43.224;27.976;2023-10-31T09:43:47;8.67;;;7.93;;
5965;SDS011;3009;43.224;27.976;2023-10-31T09:46:16;7.93;;;7.23;;
5965;SDS011;3009;43.224;27.976;2023-10-31T09:48:46;11.07;;;7.43;;
5965;SDS011;3009;43.224;27.976;2023-10-31T09:51:15;11.43;;;8.00;;
5965;SDS011;3009;43.224;27.976;2023-10-31T09:53:45;12.00;;;8.03;;
5965;SDS011;3009;43.224;27.976;2023-10-31T09:56:15;8.83;;;7.30;;
5965;SDS011;3009;43.224;27.976;2023-10-31T09:58:44;8.17;;;7.43;;
5965;SDS011;3009;43.224;27.976;2023-10-31T10:01:12;12.20;;;7.87;;
5965;SDS011;3009;43.224;27.976;2023-10-31T10:03:41;15.20;;;8.23;;
5965;SDS011;3009;43.224;27.976;2023-10-31T10:06:11;18.40;;;8.17;;
5965;SDS011;3009;43.224;27.976;2023-10-31T10:08:41;11.23;;;7.87;;
5965;SDS011;3009;43.224;27.976;2023-10-31T10:11:09;9.27;;;8.33;;
5965;SDS011;3009;43.224;27.976;2023-10-31T10:13:38;9.20;;;8.27;;
5965;SDS011;3009;43.224;27.976;2023-10-31T10:16:07;11.83;;;8.57;;
5965;SDS011;3009;43.224;27.976;2023-10-31T10:18:37;10.43;;;8.73;;
5965;SDS011;3009;43.224;27.976;2023-10-31T10:21:07;13.27;;;9.00;;
5965;SDS011;3009;43.224;27.976;2023-10-31T10:23:37;9.17;;;8.37;;
5965;SDS011;3009;43.224;27.976;2023-10-31T10:26:06;8.93;;;8.20;;
5965;SDS011;3009;43.224;27.976;2023-10-31T10:28:34;9.40;;;8.50;;
5965;SDS011;3009;43.224;27.976;2023-10-31T10:31:04;11.70;;;8.27;;
5965;SDS011;3009;43.224;27.976;2023-10-31T10:33:33;8.70;;;8.00;;
5965;SDS011;3009;43.224;27.976;2023-10-31T10:36:02;9.13;;;8.00;;
5965;SDS011;3009;43.224;27.976;2023-10-31T10:38:31;14.07;;;8.43;;
5965;SDS011;3009;43.224;27.976;2023-10-31T10:41:04;12.83;;;7.93;;
5965;SDS011;3009;43.224;27.976;2023-10-31T10:43:37;11.90;;;9.30;;
5965;SDS011;3009;43.224;27.976;2023-10-31T10:46:07;8.47;;;7.63;;
5965;SDS011;3009;43.224;27.976;2023-10-31T10:48:40;10.47;;;8.43;;
5965;SDS011;3009;43.224;27.976;2023-10-31T10:51:15;11.70;;;8.47;;
5965;SDS011;3009;43.224;27.976;2023-10-31T10:53:49;11.57;;;7.83;;
5965;SDS011;3009;43.224;27.976;2023-10-31T10:56:30;9.13;;;8.13;;
5965;SDS011;3009;43.224;27.976;2023-10-31T10:59:12;8.93;;;8.03;;
5965;SDS011;3009;43.224;27.976;2023-10-31T11:01:42;14.03;;;8.20;;
5965;SDS011;3009;43.224;27.976;2023-10-31T11:04:15;14.53;;;8.30;;
5965;SDS011;3009;43.224;27.976;2023-10-31T11:06:45;8.60;;;7.67;;
5965;SDS011;3009;43.224;27.976;2023-10-31T11:09:14;15.00;;;8.83;;
5965;SDS011;3009;43.224;27.976;2023-10-31T11:11:45;11.93;;;8.77;;
5965;SDS011;3009;43.224;27.976;2023-10-31T11:14:15;13.20;;;8.50;;
5965;SDS011;3009;43.224;27.976;2023-10-31T11:16:48;12.13;;;8.80;;
5965;SDS011;3009;43.224;27.976;2023-10-31T11:19:19;11.30;;;9.17;;
5965;SDS011;3009;43.224;27.976;2023-10-31T11:21:53;12.40;;;8.70;;
5965;SDS011;3009;43.224;27.976;2023-10-31T11:24:22;9.80;;;8.80;;
5965;SDS011;3009;43.224;27.976;2023-10-31T11:26:53;10.33;;;9.20;;
5965;SDS011;3009;43.224;27.976;2023-10-31T11:29:26;24.53;;;9.57;;
5965;SDS011;3009;43.224;27.976;2023-10-31T11:31:54;10.23;;;9.20;;
5965;SDS011;3009;43.224;27.976;2023-10-31T11:34:25;9.73;;;8.73;;
5965;SDS011;3009;43.224;27.976;2023-10-31T11:40:16;10.47;;;8.47;;
5965;SDS011;3009;43.224;27.976;2023-10-31T11:42:49;19.43;;;9.27;;
5965;SDS011;3009;43.224;27.976;2023-10-31T11:45:26;10.87;;;7.80;;
5965;SDS011;3009;43.224;27.976;2023-10-31T11:47:56;9.50;;;8.70;;
5965;SDS011;3009;43.224;27.976;2023-10-31T11:50:25;8.90;;;8.00;;
5965;SDS011;3009;43.224;27.976;2023-10-31T11:53:00;15.77;;;8.67;;
5965;SDS011;3009;43.224;27.976;2023-10-31T11:55:33;9.20;;;8.30;;
5965;SDS011;3009;43.224;27.976;2023-10-31T11:58:14;9.97;;;8.13;;
5965;SDS011;3009;43.224;27.976;2023-10-31T12:00:43;10.23;;;8.70;;
5965;SDS011;3009;43.224;27.976;2023-10-31T12:03:14;12.97;;;9.20;;
5965;SDS011;3009;43.224;27.976;2023-10-31T12:05:53;11.20;;;8.40;;
5965;SDS011;3009;43.224;27.976;2023-10-31T12:08:25;12.40;;;8.77;;
5965;SDS011;3009;43.224;27.976;2023-10-31T12:11:02;10.33;;;9.13;;
5965;SDS011;3009;43.224;27.976;2023-10-31T12:13:34;9.37;;;7.77;;
5965;SDS011;3009;43.224;27.976;2023-10-31T12:16:03;11.70;;;8.27;;
5965;SDS011;3009;43.224;27.976;2023-10-31T12:18:33;10.50;;;8.20;;
5965;SDS011;3009;43.224;27.976;2023-10-31T12:21:02;10.60;;;7.70;;
5965;SDS011;3009;43.224;27.976;2023-10-31T12:23:31;10.60;;;9.10;;
5965;SDS011;3009;43.224;27.976;2023-10-31T12:25:59;13.53;;;8.93;;
5965;SDS011;3009;43.224;27.976;2023-10-31T12:28:28;9.10;;;8.30;;
5965;SDS011;3009;43.224;27.976;2023-10-31T12:30:57;11.33;;;8.33;;
5965;SDS011;3009;43.224;27.976;2023-10-31T12:33:26;15.60;;;9.70;;
5965;SDS011;3009;43.224;27.976;2023-10-31T12:35:56;11.27;;;8.20;;
5965;SDS011;3009;43.224;27.976;2023-10-31T12:38:26;9.20;;;8.40;;
5965;SDS011;3009;43.224;27.976;2023-10-31T12:40:56;12.63;;;8.60;;
5965;SDS011;3009;43.224;27.976;2023-10-31T12:43:26;12.20;;;8.87;;
5965;SDS011;3009;43.224;27.976;2023-10-31T12:45:56;14.00;;;9.10;;
5965;SDS011;3009;43.224;27.976;2023-10-31T12:48:26;12.07;;;9.90;;
5965;SDS011;3009;43.224;27.976;2023-10-31T12:51:05;14.27;;;9.60;;
5965;SDS011;3009;43.224;27.976;2023-10-31T12:53:36;13.10;;;9.00;;
5965;SDS011;3009;43.224;27.976;2023-10-31T12:56:05;9.43;;;8.63;;
5965;SDS011;3009;43.224;27.976;2023-10-31T12:58:34;12.47;;;8.30;;
5965;SDS011;3009;43.224;27.976;2023-10-31T13:01:11;8.80;;;8.10;;
5965;SDS011;3009;43.224;27.976;2023-10-31T13:03:48;14.17;;;7.93;;
5965;SDS011;3009;43.224;27.976;2023-10-31T13:06:18;13.80;;;8.70;;
5965;SDS011;3009;43.224;27.976;2023-10-31T13:08:46;11.47;;;9.17;;
5965;SDS011;3009;43.224;27.976;2023-10-31T13:11:15;15.33;;;9.40;;
5965;SDS011;3009;43.224;27.976;2023-10-31T13:13:44;10.57;;;8.27;;
5965;SDS011;3009;43.224;27.976;2023-10-31T13:16:13;10.70;;;9.60;;
5965;SDS011;3009;43.224;27.976;2023-10-31T13:18:42;13.90;;;9.40;;
5965;SDS011;3009;43.224;27.976;2023-10-31T13:21:10;16.80;;;9.90;;
5965;SDS011;3009;43.224;27.976;2023-10-31T13:23:41;10.03;;;8.57;;
5965;SDS011;3009;43.224;27.976;2023-10-31T13:26:11;9.77;;;8.77;;
5965;SDS011;3009;43.224;27.976;2023-10-31T13:28:40;12.10;;;8.37;;
5965;SDS011;3009;43.224;27.976;2023-10-31T13:31:09;13.47;;;9.53;;
5965;SDS011;3009;43.224;27.976;2023-10-31T13:33:39;9.70;;;8.80;;
5965;SDS011;3009;43.224;27.976;2023-10-31T13:36:07;10.87;;;9.87;;
5965;SDS011;3009;43.224;27.976;2023-10-31T13:38:37;16.27;;;8.90;;
5965;SDS011;3009;43.224;27.976;2023-10-31T13:41:06;14.77;;;9.60;;
5965;SDS011;3009;43.224;27.976;2023-10-31T13:43:35;17.37;;;9.10;;
5965;SDS011;3009;43.224;27.976;2023-10-31T13:46:04;12.90;;;9.60;;
5965;SDS011;3009;43.224;27.976;2023-10-31T13:48:33;12.23;;;10.30;;
5965;SDS011;3009;43.224;27.976;2023-10-31T13:51:03;18.80;;;10.53;;
5965;SDS011;3009;43.224;27.976;2023-10-31T13:53:32;19.50;;;10.80;;
5965;SDS011;3009;43.224;27.976;2023-10-31T13:56:00;16.03;;;10.80;;
5965;SDS011;3009;43.224;27.976;2023-10-31T13:58:28;12.10;;;10.57;;
5965;SDS011;3009;43.224;27.976;2023-10-31T14:00:57;11.70;;;9.70;;
5965;SDS011;3009;43.224;27.976;2023-10-31T14:03:26;11.40;;;10.30;;
5965;SDS011;3009;43.224;27.976;2023-10-31T14:05:54;11.50;;;9.77;;
5965;SDS011;3009;43.224;27.976;2023-10-31T14:08:25;16.23;;;10.77;;
5965;SDS011;3009;43.224;27.976;2023-10-31T14:10:55;14.63;;;10.70;;
5965;SDS011;3009;43.224;27.976;2023-10-31T14:13:24;12.03;;;9.97;;
5965;SDS011;3009;43.224;27.976;2023-10-31T14:15:53;13.10;;;11.47;;
5965;SDS011;3009;43.224;27.976;2023-10-31T14:18:21;16.50;;;10.50;;
5965;SDS011;3009;43.224;27.976;2023-10-31T14:20:50;18.73;;;11.73;;
5965;SDS011;3009;43.224;27.976;2023-10-31T14:23:19;15.50;;;11.20;;
5965;SDS011;3009;43.224;27.976;2023-10-31T14:25:49;15.20;;;11.23;;
5965;SDS011;3009;43.224;27.976;2023-10-31T14:28:17;20.10;;;10.90;;
5965;SDS011;3009;43.224;27.976;2023-10-31T14:30:45;12.20;;;10.93;;
5965;SDS011;3009;43.224;27.976;2023-10-31T14:33:14;16.60;;;11.90;;
5965;SDS011;3009;43.224;27.976;2023-10-31T14:35:43;13.40;;;10.43;;
5965;SDS011;3009;43.224;27.976;2023-10-31T14:38:11;17.97;;;11.33;;
5965;SDS011;3009;43.224;27.976;2023-10-31T14:40:40;29.60;;;11.87;;
5965;SDS011;3009;43.224;27.976;2023-10-31T14:43:10;14.93;;;10.90;;
5965;SDS011;3009;43.224;27.976;2023-10-31T14:45:44;18.23;;;12.00;;
5965;SDS011;3009;43.224;27.976;2023-10-31T14:48:13;18.73;;;12.20;;
5965;SDS011;3009;43.224;27.976;2023-10-31T14:50:41;18.93;;;12.80;;
5965;SDS011;3009;43.224;27.976;2023-10-31T14:53:09;19.87;;;11.60;;
5965;SDS011;3009;43.224;27.976;2023-10-31T14:55:38;17.67;;;12.70;;
5965;SDS011;3009;43.224;27.976;2023-10-31T14:58:06;19.70;;;12.33;;
5965;SDS011;3009;43.224;27.976;2023-10-31T15:00:37;22.43;;;13.10;;